Time;durP1;ratioP1;P1;durP2;ratioP2;P2;SDS_P1;SDS_P2;PMS_P1;PMS_P2;Temp;Humidity;BMP_temperature;BMP_pressure;BME280_temperature;BME280_humidity;BME280_pressure;Samples;Min_cycle;Max_cycle;Signal;HPM_P1;HPM_P2
2021/05/24 00:01:08;;;;;;;21.48;9.13;;;;;;;17.50;77.74;98951.44;5085633;28;20106;-93
2021/05/24 00:03:34;;;;;;;21.27;9.52;;;;;;;17.65;77.69;98982.00;5082256;28;20120;-93
2021/05/24 00:06:00;;;;;;;22.48;9.05;;;;;;;17.55;78.03;98967.31;5094265;28;20043;-92
2021/05/24 00:08:27;;;;;;;22.65;8.85;;;;;;;17.64;78.09;98997.25;5088796;28;20045;-94
2021/05/24 00:10:53;;;;;;;21.15;9.32;;;;;;;17.57;78.37;98981.53;5093924;28;20051;-91
2021/05/24 00:13:21;;;;;;;22.08;9.70;;;;;;;17.52;78.63;98972.84;5094741;28;20044;-92
2021/05/24 00:15:50;;;;;;;19.30;8.67;;;;;;;17.59;79.11;98985.03;5089003;28;20041;-93
2021/05/24 00:18:17;;;;;;;17.35;8.95;;;;;;;17.58;77.99;98978.75;5090203;28;20343;-93
2021/05/24 00:20:45;;;;;;;27.63;10.20;;;;;;;17.60;79.20;98998.38;5090354;28;20075;-91
2021/05/24 00:23:11;;;;;;;21.35;9.60;;;;;;;17.63;78.90;99005.41;5091926;28;20082;-92
2021/05/24 00:25:38;;;;;;;25.17;10.45;;;;;;;17.79;78.29;99029.69;5093328;28;20040;-92
2021/05/24 00:28:06;;;;;;;19.60;9.10;;;;;;;17.85;77.37;99030.28;5089236;28;20060;-94
2021/05/24 00:30:33;;;;;;;24.38;10.00;;;;;;;17.76;77.70;99005.63;5091128;28;20393;-94
2021/05/24 00:33:00;;;;;;;25.33;9.18;;;;;;;17.64;78.37;98997.25;5089057;28;20060;-94
2021/05/24 00:35:26;;;;;;;24.13;8.57;;;;;;;17.79;78.73;99008.19;5086045;28;20043;-93
2021/05/24 00:37:52;;;;;;;22.50;9.60;;;;;;;17.74;79.05;98989.59;5088228;28;20045;-92
2021/05/24 00:40:18;;;;;;;17.90;8.60;;;;;;;17.75;78.15;98964.41;5094210;28;20047;-95
2021/05/24 00:42:45;;;;;;;21.17;8.75;;;;;;;17.75;78.14;98959.03;5097908;28;20044;-94
2021/05/24 00:45:12;;;;;;;22.90;8.93;;;;;;;17.66;78.37;98944.25;5093880;28;20068;-93
2021/05/24 00:47:38;;;;;;;19.90;8.90;;;;;;;17.76;77.99;98949.16;5091868;28;20040;-95
2021/05/24 00:50:06;;;;;;;22.60;9.02;;;;;;;17.63;78.75;98947.13;5098104;28;20043;-94
2021/05/24 00:52:32;;;;;;;25.20;9.25;;;;;;;17.43;79.57;98937.41;5097780;28;20048;-94
2021/05/24 00:54:59;;;;;;;22.33;9.20;;;;;;;17.38;80.63;98942.16;5097982;28;20040;-94
2021/05/24 00:57:25;;;;;;;23.95;9.63;;;;;;;17.36;80.24;98946.75;5097353;28;20093;-93
2021/05/24 00:59:51;;;;;;;25.77;9.68;;;;;;;17.28;80.07;98918.53;5087278;28;20089;-95
2021/05/24 01:02:17;;;;;;;19.88;9.93;;;;;;;17.29;81.03;98907.72;5099387;28;20498;-93
2021/05/24 01:04:43;;;;;;;27.80;10.70;;;;;;;17.28;80.45;98892.50;5093867;28;20040;-93
2021/05/24 01:07:10;;;;;;;22.88;9.18;;;;;;;17.32;80.57;98902.16;5100728;28;20040;-93
2021/05/24 01:09:36;;;;;;;25.40;9.27;;;;;;;17.30;80.93;98898.69;5094330;28;20556;-94
2021/05/24 01:12:05;;;;;;;22.15;9.13;;;;;;;17.27;81.10;98914.97;5098905;28;20079;-94
2021/05/24 01:14:31;;;;;;;22.17;10.07;;;;;;;17.09;81.30;98914.13;5094710;28;20437;-94
2021/05/24 01:16:57;;;;;;;21.98;9.18;;;;;;;17.10;81.36;98934.66;5096017;28;20047;-95
2021/05/24 01:19:25;;;;;;;19.73;9.63;;;;;;;17.18;81.52;98959.31;5098724;28;20385;-94
2021/05/24 01:21:52;;;;;;;25.02;10.20;;;;;;;17.19;81.95;98958.38;5093099;28;20040;-94
2021/05/24 01:24:20;;;;;;;27.73;10.02;;;;;;;17.22;81.91;98947.47;5094936;28;20044;-94
2021/05/24 01:26:46;;;;;;;23.52;9.18;;;;;;;17.19;81.87;98944.06;5098812;28;20024;-95
2021/05/24 01:29:13;;;;;;;24.15;10.02;;;;;;;17.03;81.53;98943.97;5096132;28;20067;-95
2021/05/24 01:31:40;;;;;;;23.88;9.80;;;;;;;17.04;81.74;98949.28;5096910;28;20028;-93
2021/05/24 01:34:06;;;;;;;21.42;9.55;;;;;;;17.08;82.04;98957.19;5089921;28;20133;-95
2021/05/24 01:36:32;;;;;;;19.70;9.50;;;;;;;17.00;82.59;98942.31;5096503;28;20044;-95
2021/05/24 01:38:59;;;;;;;24.83;10.30;;;;;;;16.95;82.13;98928.25;5090913;28;20028;-94
2021/05/24 01:41:25;;;;;;;19.27;8.65;;;;;;;17.08;81.84;98924.94;5093854;28;20509;-92
2021/05/24 01:43:51;;;;;;;20.92;9.77;;;;;;;17.09;82.67;98918.59;5095862;28;20043;-91
2021/05/24 01:46:18;;;;;;;19.52;9.70;;;;;;;17.15;82.73;98942.47;5093832;28;20122;-92
2021/05/24 01:48:44;;;;;;;23.73;9.48;;;;;;;17.17;82.68;98946.81;5093869;28;20044;-94
2021/05/24 01:51:10;;;;;;;24.58;10.18;;;;;;;17.00;82.98;98922.63;5089679;28;20036;-94
2021/05/24 01:53:36;;;;;;;22.10;10.32;;;;;;;17.00;83.38;98926.22;5091258;28;20044;-94
2021/05/24 01:56:05;;;;;;;28.95;9.93;;;;;;;17.06;84.13;98949.19;5089370;28;20040;-94
2021/05/24 01:58:30;;;;;;;18.20;9.47;;;;;;;16.90;84.35;98927.63;5087931;28;20062;-93
2021/05/24 02:01:01;;;;;;;17.58;10.13;;;;;;;16.98;84.27;98925.41;5093806;28;20040;-93
2021/05/24 02:03:27;;;;;;;19.52;9.30;;;;;;;17.08;83.75;98927.63;5086239;28;20045;-91
2021/05/24 02:05:53;;;;;;;22.23;9.60;;;;;;;16.89;83.94;98892.75;5084447;28;20055;-91
2021/05/24 02:08:20;;;;;;;20.48;9.18;;;;;;;16.96;84.48;98907.66;5088989;28;20041;-93
2021/05/24 02:10:46;;;;;;;20.75;9.57;;;;;;;16.90;84.17;98887.31;5093284;28;20045;-94
2021/05/24 02:13:13;;;;;;;20.13;9.18;;;;;;;16.84;84.00;98874.19;5083881;28;20048;-93
2021/05/24 02:15:41;;;;;;;17.73;9.32;;;;;;;16.77;84.30;98878.13;5085352;28;20494;-93
2021/05/24 02:18:07;;;;;;;22.60;9.50;;;;;;;16.76;84.95;98885.31;5091465;28;20130;-92
2021/05/24 02:20:34;;;;;;;24.38;10.60;;;;;;;16.79;85.45;98903.94;5094703;28;20040;-92
2021/05/24 02:23:02;;;;;;;20.63;10.80;;;;;;;16.78;85.16;98907.56;5087793;28;20570;-92
2021/05/24 02:25:28;;;;;;;22.73;10.73;;;;;;;16.68;85.68;98908.13;5088927;28;20040;-93
2021/05/24 02:27:55;;;;;;;23.17;10.80;;;;;;;16.76;85.47;98919.34;5092240;28;20040;-93
2021/05/24 02:30:23;;;;;;;29.23;11.35;;;;;;;16.56;85.57;98902.41;5088953;28;20040;-93
2021/05/24 02:32:49;;;;;;;24.67;11.50;;;;;;;16.53;85.97;98882.91;5088779;28;20497;-93
2021/05/24 02:35:17;;;;;;;20.13;10.48;;;;;;;16.62;85.86;98880.63;5092000;28;20105;-93
2021/05/24 02:37:45;;;;;;;22.88;10.30;;;;;;;16.63;85.13;98851.94;5087047;28;20123;-93
2021/05/24 02:40:13;;;;;;;22.75;11.43;;;;;;;16.58;85.29;98852.19;5090154;28;20040;-92
2021/05/24 02:42:39;;;;;;;30.50;12.30;;;;;;;16.74;85.68;98894.38;5087318;28;20519;-92
2021/05/24 02:45:08;;;;;;;20.40;10.50;;;;;;;16.81;86.12;98934.31;5088451;28;20109;-90
2021/05/24 02:47:35;;;;;;;25.63;11.25;;;;;;;16.69;86.15;98918.78;5085874;28;20044;-92
2021/05/24 02:50:02;;;;;;;25.48;11.45;;;;;;;16.79;85.97;98935.31;5087318;28;20055;-94
2021/05/24 02:52:28;;;;;;;20.67;11.15;;;;;;;16.80;85.85;98932.56;5085020;28;20044;-93
2021/05/24 02:54:54;;;;;;;24.23;12.65;;;;;;;16.87;85.82;98943.00;5085984;28;20502;-93
2021/05/24 02:57:20;;;;;;;26.45;11.32;;;;;;;16.82;85.56;98940.56;5085717;28;20037;-92
2021/05/24 02:59:46;;;;;;;20.40;11.50;;;;;;;16.76;85.70;98927.38;5085061;28;20040;-92
2021/05/24 03:02:12;;;;;;;25.08;12.70;;;;;;;16.80;85.49;98931.69;5086644;28;20054;-91
2021/05/24 03:04:39;;;;;;;24.98;11.93;;;;;;;16.73;85.54;98914.13;5087415;28;20063;-93
2021/05/24 03:07:05;;;;;;;24.20;12.82;;;;;;;16.49;86.12;98878.63;5084873;28;20032;-92
2021/05/24 03:09:32;;;;;;;26.35;13.13;;;;;;;16.51;86.31;98901.75;5092330;28;20075;-93
2021/05/24 03:11:58;;;;;;;28.50;13.15;;;;;;;16.32;86.75;98888.38;5088002;28;20037;-93
2021/05/24 03:14:24;;;;;;;32.20;13.73;;;;;;;16.34;87.03;98891.84;5083925;28;20405;-92
2021/05/24 03:16:50;;;;;;;35.72;14.30;;;;;;;16.38;86.92;98885.38;5082613;28;20033;-92
2021/05/24 03:19:16;;;;;;;33.08;13.40;;;;;;;16.44;86.61;98881.56;5084651;28;20505;-93
2021/05/24 03:24:43;;;;;;;32.45;13.23;;;;;;;16.57;85.94;98868.41;5132120;27;20411;-93
2021/05/24 03:27:09;;;;;;;30.65;12.60;;;;;;;16.54;85.72;98853.28;5132053;27;20056;-94
2021/05/24 03:29:35;;;;;;;23.67;12.35;;;;;;;16.48;86.02;98848.25;5132374;27;20043;-94
2021/05/24 03:32:00;;;;;;;25.52;13.45;;;;;;;16.35;86.81;98857.81;5131698;27;20039;-94
2021/05/24 03:34:26;;;;;;;29.77;14.63;;;;;;;16.28;86.82;98853.72;5133856;27;20039;-94
2021/05/24 03:36:52;;;;;;;39.90;14.25;;;;;;;16.26;87.52;98847.56;5135205;27;20044;-95
2021/05/24 03:39:20;;;;;;;33.40;14.43;;;;;;;16.35;87.24;98833.66;5132373;27;20122;-93
2021/05/24 03:41:47;;;;;;;31.13;13.13;;;;;;;16.38;86.95;98826.34;5132243;27;20028;-92
2021/05/24 03:44:13;;;;;;;30.45;14.88;;;;;;;16.33;87.25;98798.88;5132705;27;20061;-95
2021/05/24 03:46:38;;;;;;;26.80;13.13;;;;;;;16.59;86.50;98800.25;5131556;27;20496;-92
2021/05/24 03:49:05;;;;;;;32.45;15.07;;;;;;;16.38;86.91;98779.84;5132349;27;20043;-93
2021/05/24 03:51:31;;;;;;;30.30;15.20;;;;;;;16.28;87.53;98771.38;5132766;27;20042;-93
2021/05/24 03:53:57;;;;;;;32.05;16.55;;;;;;;16.20;87.61;98749.47;5132747;27;20046;-94
2021/05/24 03:56:23;;;;;;;39.05;17.25;;;;;;;16.32;87.72;98756.00;5132449;27;20046;-95
2021/05/24 03:58:50;;;;;;;37.05;17.80;;;;;;;16.13;87.91;98724.72;5132895;27;20401;-92
2021/05/24 04:01:16;;;;;;;39.42;16.10;;;;;;;16.20;87.38;98695.81;5130995;27;20048;-93
2021/05/24 04:03:43;;;;;;;34.17;15.98;;;;;;;16.21;87.66;98697.53;5131913;27;20115;-94
2021/05/24 04:06:12;;;;;;;41.28;16.88;;;;;;;16.22;87.56;98705.50;5132049;27;20104;-94
2021/05/24 04:08:42;;;;;;;35.70;16.45;;;;;;;16.18;87.89;98698.56;5132364;27;20039;-94
2021/05/24 04:11:08;;;;;;;38.10;16.63;;;;;;;16.25;87.67;98680.31;5133126;27;20051;-94
2021/05/24 04:13:34;;;;;;;43.92;18.55;;;;;;;16.13;87.58;98659.50;5133412;27;20508;-94
2021/05/24 04:16:01;;;;;;;41.97;16.20;;;;;;;16.32;86.89;98667.47;5131859;27;20047;-93
2021/05/24 04:18:30;;;;;;;35.20;17.05;;;;;;;16.20;87.30;98648.38;5133301;27;20043;-94
2021/05/24 04:20:56;;;;;;;38.38;17.80;;;;;;;16.18;87.47;98647.59;5133649;27;20516;-94
2021/05/24 04:23:22;;;;;;;32.65;16.30;;;;;;;16.39;87.01;98647.41;5132338;27;20061;-93
2021/05/24 04:25:48;;;;;;;33.78;15.35;;;;;;;16.42;86.58;98621.28;5131755;27;20104;-92
2021/05/24 04:28:14;;;;;;;33.45;15.27;;;;;;;16.40;85.87;98612.44;5131923;27;20071;-94
2021/05/24 04:30:40;;;;;;;46.70;16.35;;;;;;;16.49;86.46;98645.97;5131903;27;20035;-94
2021/05/24 04:33:07;;;;;;;39.10;16.17;;;;;;;16.33;86.76;98640.56;5132918;27;20104;-92
2021/05/24 04:35:33;;;;;;;44.22;16.85;;;;;;;16.37;86.97;98643.91;5123935;28;20039;-94
2021/05/24 04:37:59;;;;;;;42.33;16.63;;;;;;;16.29;86.89;98622.03;5119610;28;20401;-94
2021/05/24 04:40:25;;;;;;;31.58;15.45;;;;;;;16.39;86.18;98644.72;5121758;27;20036;-94
2021/05/24 04:42:53;;;;;;;45.10;16.40;;;;;;;16.46;86.36;98670.31;5119759;28;20044;-93
2021/05/24 04:45:19;;;;;;;40.85;18.13;;;;;;;16.22;86.43;98651.84;5122066;28;20412;-93
2021/05/24 04:47:45;;;;;;;35.15;16.38;;;;;;;16.33;86.40;98659.34;5120426;28;20531;-94
2021/05/24 04:50:12;;;;;;;38.90;18.15;;;;;;;16.42;86.38;98682.13;5121545;27;20051;-91
2021/05/24 04:52:38;;;;;;;43.65;19.00;;;;;;;16.34;86.62;98695.09;5121163;28;20486;-94
2021/05/24 04:55:06;;;;;;;42.10;16.80;;;;;;;16.34;86.84;98725.47;5122733;28;20039;-95
2021/05/24 04:57:32;;;;;;;38.70;16.25;;;;;;;16.47;86.30;98743.63;5122161;28;20040;-95
2021/05/24 04:59:58;;;;;;;37.05;17.10;;;;;;;16.45;86.77;98780.41;5120890;28;20047;-92
2021/05/24 05:02:27;;;;;;;38.90;16.92;;;;;;;16.56;86.30;98792.31;5123513;28;20074;-93
2021/05/24 05:04:54;;;;;;;39.35;17.15;;;;;;;16.52;86.30;98796.13;5123461;28;20040;-91
2021/05/24 05:07:20;;;;;;;37.10;16.38;;;;;;;16.61;85.96;98816.25;5120537;28;20044;-95
2021/05/24 05:09:46;;;;;;;35.75;17.55;;;;;;;16.58;85.89;98817.28;5121183;28;20089;-94
2021/05/24 05:12:12;;;;;;;37.33;16.42;;;;;;;16.60;86.09;98822.59;5118055;28;20044;-92
2021/05/24 05:14:38;;;;;;;36.97;16.80;;;;;;;16.72;86.00;98837.19;5121790;28;20048;-96
2021/05/24 05:17:04;;;;;;;40.30;17.52;;;;;;;16.72;85.85;98840.75;5122448;28;20052;-95
2021/05/24 05:19:30;;;;;;;38.33;18.15;;;;;;;16.73;85.63;98849.69;5122115;28;20500;-93
2021/05/24 05:21:56;;;;;;;35.85;17.08;;;;;;;16.75;85.56;98826.31;5121488;28;20489;-94
2021/05/24 05:24:23;;;;;;;43.55;18.15;;;;;;;16.75;85.59;98837.03;5120441;28;20043;-90
2021/05/24 05:26:49;;;;;;;44.58;18.02;;;;;;;16.77;85.81;98848.59;5120878;28;20071;-94
2021/05/24 05:29:15;;;;;;;43.55;17.55;;;;;;;16.82;85.94;98838.50;5121172;28;20036;-95
2021/05/24 05:31:41;;;;;;;42.83;17.58;;;;;;;16.73;85.78;98829.06;5121132;28;20043;-95
2021/05/24 05:34:07;;;;;;;36.25;17.23;;;;;;;16.81;85.60;98832.25;5120118;28;20054;-94
2021/05/24 05:36:34;;;;;;;41.88;17.20;;;;;;;16.92;84.68;98849.66;5120046;28;20036;-94
2021/05/24 05:39:00;;;;;;;39.30;17.45;;;;;;;16.94;85.09;98845.94;5118361;28;20130;-93
2021/05/24 05:41:27;;;;;;;35.90;16.48;;;;;;;16.94;84.96;98835.19;5119195;28;20051;-94
2021/05/24 05:43:53;;;;;;;34.33;15.68;;;;;;;16.94;84.93;98845.94;5119615;28;20043;-96
2021/05/24 05:46:19;;;;;;;35.03;15.60;;;;;;;17.07;84.99;98875.72;5115788;28;20493;-92
2021/05/24 05:48:45;;;;;;;30.55;16.23;;;;;;;17.13;84.99;98880.78;5118090;28;20042;-92
2021/05/24 05:51:11;;;;;;;31.65;14.73;;;;;;;17.14;84.87;98870.88;5119976;28;20042;-95
2021/05/24 05:53:37;;;;;;;33.95;15.55;;;;;;;17.12;84.80;98835.16;5112053;28;20039;-93
2021/05/24 05:56:03;;;;;;;32.50;14.73;;;;;;;17.22;84.18;98852.56;5119223;28;20043;-94
2021/05/24 05:58:53;;;;;;;37.45;15.13;;;;;;;17.08;84.19;98829.06;5122535;28;20482;-91
2021/05/24 06:01:29;;;;;;;34.97;15.15;;;;;;;17.04;84.76;98855.25;5112062;28;20048;-93
2021/05/24 06:03:57;;;;;;;31.88;13.75;;;;;;;17.24;84.35;98867.63;5118023;28;20397;-92
2021/05/24 06:06:23;;;;;;;33.90;15.27;;;;;;;17.10;84.56;98880.06;5118315;28;20042;-93
2021/05/24 06:08:49;;;;;;;35.65;15.05;;;;;;;17.04;85.32;98909.00;5117901;28;20067;-95
2021/05/24 06:11:15;;;;;;;34.22;15.88;;;;;;;16.90;85.43;98908.81;5118940;28;20555;-94
2021/05/24 06:13:42;;;;;;;31.13;15.20;;;;;;;16.87;85.67;98919.69;5116548;28;20059;-94
2021/05/24 06:16:08;;;;;;;34.63;17.45;;;;;;;16.92;85.64;98939.16;5114267;28;20035;-93
2021/05/24 06:18:34;;;;;;;31.60;16.83;;;;;;;16.90;85.83;98916.00;5116598;28;20108;-92
2021/05/24 06:21:00;;;;;;;35.97;16.35;;;;;;;16.88;85.52;98908.03;5116375;28;20496;-92
2021/05/24 06:23:26;;;;;;;35.00;17.25;;;;;;;16.86;85.96;98922.47;5116478;28;20063;-92
2021/05/24 06:25:51;;;;;;;34.60;17.52;;;;;;;16.97;86.26;98930.84;5116553;28;20487;-95
2021/05/24 06:28:17;;;;;;;40.03;16.40;;;;;;;16.96;85.75;98894.22;5116632;28;20043;-93
2021/05/24 06:30:47;;;;;;;31.45;13.77;;;;;;;17.22;84.05;98876.75;5115619;28;20039;-92
2021/05/24 06:33:14;;;;;;;34.53;15.02;;;;;;;17.39;83.68;98903.59;5115414;28;20036;-94
2021/05/24 06:35:40;;;;;;;29.40;14.55;;;;;;;17.09;85.09;98881.00;5115470;28;20085;-93
2021/05/24 06:38:06;;;;;;;28.25;15.68;;;;;;;16.87;85.92;98890.16;5119065;28;20035;-92
2021/05/24 06:40:32;;;;;;;27.80;14.65;;;;;;;16.86;86.07;98888.41;5117838;28;20097;-92
2021/05/24 06:42:58;;;;;;;28.83;14.15;;;;;;;16.89;85.62;98892.75;5117421;28;20127;-93
2021/05/24 06:45:24;;;;;;;25.25;14.20;;;;;;;16.94;85.97;98888.91;5115543;28;20036;-94
2021/05/24 06:47:51;;;;;;;28.73;14.10;;;;;;;16.87;85.80;98886.59;5119180;28;20036;-93
2021/05/24 06:50:17;;;;;;;24.00;13.20;;;;;;;16.80;85.97;98913.75;5120101;28;20036;-95
2021/05/24 06:52:43;;;;;;;29.45;13.20;;;;;;;16.79;85.95;98903.94;5118808;28;20058;-94
2021/05/24 06:55:11;;;;;;;24.98;12.07;;;;;;;17.11;84.35;98881.78;5119990;28;20055;-95
2021/05/24 06:57:37;;;;;;;20.50;11.70;;;;;;;17.60;81.76;98879.19;5116606;28;20437;-93
2021/05/24 07:00:05;;;;;;;24.73;11.95;;;;;;;17.82;80.86;98868.16;5115613;28;20497;-92
2021/05/24 07:02:31;;;;;;;21.08;11.32;;;;;;;17.84;81.11;98877.88;5116089;28;20515;-95
2021/05/24 07:04:58;;;;;;;21.70;10.82;;;;;;;18.13;79.39;98851.19;5116048;28;20036;-92
2021/05/24 07:07:24;;;;;;;18.80;9.98;;;;;;;18.35;77.69;98866.97;5117161;28;20530;-94
2021/05/24 07:09:50;;;;;;;20.42;10.55;;;;;;;18.08;78.39;98834.41;5114182;28;20044;-95
2021/05/24 07:12:16;;;;;;;20.20;10.82;;;;;;;18.10;78.77;98840.56;5116253;28;20036;-93
2021/05/24 07:14:45;;;;;;;21.42;11.10;;;;;;;18.02;79.76;98834.75;5115288;28;20131;-93
2021/05/24 07:17:11;;;;;;;;;;;;;;;18.04;78.51;98825.66;5116589;28;20031;-93
2021/05/24 07:19:37;;;;;;;19.55;8.40;;;;;;;18.10;76.61;98789.44;5117056;28;19926;-94
2021/05/24 07:22:04;;;;;;;18.65;8.52;;;;;;;18.16;76.67;98799.84;5117072;28;20043;-94
2021/05/24 07:24:30;;;;;;;15.02;8.95;;;;;;;18.41;77.31;98817.28;5117656;28;20043;-95
2021/05/24 07:26:56;;;;;;;18.63;9.05;;;;;;;18.70;76.05;98807.50;5119167;28;20070;-93
2021/05/24 07:29:22;;;;;;;23.95;9.20;;;;;;;19.20;74.25;98791.94;5118317;28;20050;-94
2021/05/24 07:31:48;;;;;;;19.48;9.63;;;;;;;19.46;71.17;98785.75;5116237;28;20350;-94
2021/05/24 07:34:14;;;;;;;18.48;8.10;;;;;;;19.28;72.85;98805.81;5117557;28;20036;-91
2021/05/24 07:36:40;;;;;;;14.25;8.57;;;;;;;18.70;75.09;98779.69;5116231;28;20496;-91
2021/05/24 07:39:07;;;;;;;15.35;7.90;;;;;;;19.19;72.55;98791.06;5117444;28;20063;-93
2021/05/24 07:41:35;;;;;;;19.02;8.25;;;;;;;19.42;72.81;98788.75;5118838;28;20040;-94
2021/05/24 07:44:01;;;;;;;15.98;8.38;;;;;;;19.87;70.16;98773.31;5117614;28;20128;-93
2021/05/24 07:46:27;;;;;;;15.80;7.30;;;;;;;19.92;69.47;98764.91;5118203;28;20079;-94
2021/05/24 07:48:53;;;;;;;18.35;7.35;;;;;;;20.20;69.23;98781.03;5117506;28;20040;-93
2021/05/24 07:51:19;;;;;;;16.77;7.50;;;;;;;20.35;67.54;98756.66;5117535;28;20032;-95
2021/05/24 07:53:45;;;;;;;16.58;6.68;;;;;;;20.69;66.63;98739.06;5118585;28;20557;-95
2021/05/24 07:56:12;;;;;;;15.63;7.30;;;;;;;20.65;66.83;98734.84;5117024;28;20042;-93
2021/05/24 07:58:38;;;;;;;16.50;7.47;;;;;;;20.39;67.56;98739.28;5117367;28;20120;-94
2021/05/24 08:01:04;;;;;;;14.00;6.97;;;;;;;20.12;67.22;98729.34;5115740;28;20059;-94
2021/05/24 08:03:30;;;;;;;16.95;7.60;;;;;;;19.70;68.90;98731.25;5116839;28;20082;-94
2021/05/24 08:05:56;;;;;;;15.02;7.38;;;;;;;20.15;68.90;98736.41;5117801;28;20032;-94
2021/05/24 08:08:22;;;;;;;16.33;7.30;;;;;;;20.82;66.03;98747.16;5117905;28;20092;-92
2021/05/24 08:10:48;;;;;;;18.92;7.97;;;;;;;20.20;67.88;98762.13;5120491;28;20035;-93
2021/05/24 08:13:15;;;;;;;20.73;8.00;;;;;;;20.16;69.59;98746.22;5123403;28;20044;-92
2021/05/24 08:15:41;;;;;;;18.25;7.68;;;;;;;20.02;69.54;98755.25;5121994;28;20051;-92
2021/05/24 08:18:08;;;;;;;15.40;6.95;;;;;;;19.93;69.39;98726.16;5120628;28;20388;-93
2021/05/24 08:20:36;;;;;;;11.50;6.97;;;;;;;20.26;69.28;98729.31;5120371;28;20118;-93
2021/05/24 08:23:03;;;;;;;14.27;7.85;;;;;;;20.64;67.65;98719.59;5121676;28;20079;-93
2021/05/24 08:25:30;;;;;;;19.17;7.85;;;;;;;20.70;67.73;98727.28;5122452;28;20069;-93
2021/05/24 08:27:56;;;;;;;17.55;7.32;;;;;;;20.65;66.06;98702.41;5119813;28;20039;-92
2021/05/24 08:30:23;;;;;;;15.20;6.95;;;;;;;20.70;65.61;98709.22;5121821;28;20042;-93
2021/05/24 08:32:50;;;;;;;15.00;7.53;;;;;;;20.23;69.21;98697.13;5124836;28;20044;-95
2021/05/24 08:35:16;;;;;;;14.15;7.25;;;;;;;20.72;67.25;98691.06;5122139;28;20075;-94
2021/05/24 08:37:42;;;;;;;14.07;7.32;;;;;;;21.23;65.20;98709.13;5121796;28;20036;-93
2021/05/24 08:40:18;;;;;;;17.67;7.10;;;;;;;21.78;64.08;98693.41;5122391;28;20127;-95
2021/05/24 08:42:45;;;;;;;13.43;6.35;;;;;;;22.14;60.04;98683.47;5120801;28;20434;-93
2021/05/24 08:45:12;;;;;;;15.32;6.13;;;;;;;22.66;58.75;98675.94;5114776;28;20436;-92
2021/05/24 08:47:39;;;;;;;16.55;7.28;;;;;;;23.02;56.87;98685.75;5121249;27;20510;-92
2021/05/24 08:50:07;;;;;;;18.58;7.28;;;;;;;22.45;58.69;98675.78;5122367;28;20039;-94
2021/05/24 08:52:33;;;;;;;14.02;7.13;;;;;;;22.63;59.37;98682.47;5121839;28;20044;-94
2021/05/24 08:55:01;;;;;;;14.82;6.80;;;;;;;23.11;58.05;98681.44;5120848;28;20048;-94
2021/05/24 08:57:27;;;;;;;14.25;7.05;;;;;;;23.09;56.76;98681.56;5121642;28;20131;-94
2021/05/24 08:59:55;;;;;;;16.80;6.90;;;;;;;23.33;57.97;98707.69;5120588;28;20071;-93
2021/05/24 09:02:21;;;;;;;14.25;6.03;;;;;;;23.67;54.14;98705.81;5118069;28;20070;-94
2021/05/24 09:04:50;;;;;;;10.23;5.18;;;;;;;24.13;51.23;98695.75;5121323;28;20100;-94
2021/05/24 09:07:17;;;;;;;12.70;5.82;;;;;;;24.35;49.91;98664.88;5116909;28;20070;-92
2021/05/24 09:09:59;;;;;;;13.02;5.65;;;;;;;24.69;48.12;98681.03;5119908;28;20040;-93
2021/05/24 09:12:31;;;;;;;16.98;6.07;;;;;;;24.75;47.04;98686.81;5117099;28;20127;-93
2021/05/24 09:14:58;;;;;;;13.27;6.13;;;;;;;24.04;49.59;98659.34;5122865;28;20047;-93
2021/05/24 09:17:27;;;;;;;13.50;5.60;;;;;;;24.08;49.97;98668.09;5123548;28;20031;-92
2021/05/24 09:19:54;;;;;;;14.27;5.93;;;;;;;23.48;51.57;98659.47;5119929;28;20769;-93
2021/05/24 09:22:23;;;;;;;11.75;6.47;;;;;;;23.34;52.51;98674.16;5120784;28;20047;-94
2021/05/24 09:24:51;;;;;;;14.52;5.97;;;;;;;23.73;53.13;98666.47;5120955;28;20089;-91
2021/05/24 09:27:25;;;;;;;14.50;6.32;;;;;;;24.08;50.00;98665.38;5121416;27;20065;-93
2021/05/24 09:29:53;;;;;;;11.93;6.13;;;;;;;24.40;50.25;98635.47;5118750;28;20044;-92
2021/05/24 09:32:21;;;;;;;12.45;6.10;;;;;;;24.69;48.13;98635.69;5119290;28;20043;-95
2021/05/24 09:34:48;;;;;;;15.20;6.30;;;;;;;25.06;49.15;98637.88;5118626;28;20046;-93
2021/05/24 09:37:16;;;;;;;11.95;6.38;;;;;;;24.73;47.72;98626.25;5118712;28;20043;-94
2021/05/24 09:39:42;;;;;;;17.73;6.53;;;;;;;25.29;47.68;98618.66;5118033;28;20404;-93
2021/05/24 09:42:10;;;;;;;14.32;5.97;;;;;;;25.73;46.35;98619.19;5116651;28;20055;-91
2021/05/24 09:44:47;;;;;;;16.60;6.37;;;;;;;25.90;46.22;98615.78;5119012;28;20057;-94
2021/05/24 09:47:14;;;;;;;19.25;6.25;;;;;;;25.26;47.04;98619.78;5119898;28;20280;-93
2021/05/24 09:49:46;;;;;;;14.18;6.20;;;;;;;25.50;47.12;98616.69;5117256;28;20047;-94
2021/05/24 09:52:12;;;;;;;13.07;6.25;;;;;;;25.18;47.54;98617.72;5120858;28;20061;-93
2021/05/24 09:54:40;;;;;;;16.42;5.63;;;;;;;25.40;46.90;98633.00;5119452;28;20055;-92
2021/05/24 09:57:09;;;;;;;17.17;5.87;;;;;;;25.47;44.66;98616.97;5119115;28;20065;-94
2021/05/24 09:59:35;;;;;;;14.35;5.65;;;;;;;25.65;45.39;98627.19;5121164;28;20343;-94
2021/05/24 10:02:05;;;;;;;11.52;5.00;;;;;;;25.84;44.36;98624.50;5117720;28;20100;-94
2021/05/24 10:04:33;;;;;;;12.23;5.50;;;;;;;25.97;42.90;98597.00;5119404;28;20035;-95
2021/05/24 10:09:58;;;;;;;13.05;5.05;;;;;;;25.52;42.77;98609.25;5141605;27;20363;-92
2021/05/24 10:12:24;;;;;;;10.50;4.95;;;;;;;25.70;41.56;98601.28;5138127;27;20047;-91
2021/05/24 10:14:50;;;;;;;12.38;4.93;;;;;;;26.19;42.13;98606.75;5133440;27;20043;-92
2021/05/24 10:17:16;;;;;;;11.77;5.10;;;;;;;26.19;41.88;98579.50;5150162;27;20044;-94
2021/05/24 10:19:42;;;;;;;13.02;5.05;;;;;;;26.55;41.18;98615.16;5135187;27;20040;-93
2021/05/24 10:22:08;;;;;;;9.70;5.00;;;;;;;26.71;39.70;98598.22;5133888;27;20382;-93
2021/05/24 10:24:34;;;;;;;13.75;5.30;;;;;;;26.27;38.20;98581.50;5145717;27;20046;-91
2021/05/24 10:27:02;;;;;;;15.13;4.50;;;;;;;26.15;39.83;98603.44;5134341;27;20035;-95
2021/05/24 10:29:29;;;;;;;13.65;4.65;;;;;;;26.73;39.37;98588.03;5135811;27;20043;-95
2021/05/24 10:31:55;;;;;;;7.70;4.40;;;;;;;27.02;38.60;98593.34;5135749;27;20396;-93
2021/05/24 10:34:24;;;;;;;12.55;4.72;;;;;;;26.92;36.25;98584.38;5133850;27;20040;-92
2021/05/24 10:37:06;;;;;;;13.10;4.68;;;;;;;27.05;35.77;98584.88;5133007;27;20039;-94
2021/05/24 10:39:49;;;;;;;10.45;4.05;;;;;;;27.47;35.66;98576.19;5136398;27;20052;-94
2021/05/24 10:42:17;;;;;;;11.55;4.40;;;;;;;26.97;35.94;98584.75;5134083;28;20043;-93
2021/05/24 10:44:45;;;;;;;13.18;4.18;;;;;;;26.96;35.54;98585.78;5135859;27;20523;-93
2021/05/24 10:47:20;;;;;;;10.45;4.25;;;;;;;27.24;35.32;98582.09;5132535;27;20028;-93
2021/05/24 10:50:02;;;;;;;11.65;4.30;;;;;;;27.34;35.56;98590.22;5132777;27;20062;-94
2021/05/24 10:52:29;;;;;;;13.25;4.55;;;;;;;27.20;35.96;98569.72;5143443;27;20036;-91
2021/05/24 10:54:55;;;;;;;13.93;4.43;;;;;;;27.72;34.58;98565.53;5148798;27;20058;-95
2021/05/24 10:57:28;;;;;;;11.80;4.47;;;;;;;27.85;34.45;98574.25;5133149;28;20039;-94
2021/05/24 10:59:59;;;;;;;8.20;3.80;;;;;;;27.38;35.19;98574.38;5134919;27;20043;-93
2021/05/24 11:02:31;;;;;;;11.30;4.35;;;;;;;27.56;36.18;98545.22;5132372;27;20032;-92
2021/05/24 11:04:59;;;;;;;11.18;4.28;;;;;;;26.99;36.08;98547.28;5142343;27;20122;-91
2021/05/24 11:07:28;;;;;;;7.28;4.03;;;;;;;27.54;35.38;98570.97;5140231;27;20039;-96
2021/05/24 11:10:16;;;;;;;9.60;3.63;;;;;;;27.70;32.72;98545.72;5134812;27;20067;-92
2021/05/24 11:12:47;;;;;;;10.75;3.53;;;;;;;27.10;30.10;98538.03;5125328;27;20039;-92
2021/05/24 11:15:22;;;;;;;;;;;;;;;27.49;30.25;98559.66;5141294;27;20487;-94
2021/05/24 11:18:11;;;;;;;9.95;3.50;;;;;;;26.94;30.87;98553.19;5137029;27;20006;-94
2021/05/24 11:20:39;;;;;;;11.02;4.00;;;;;;;27.60;31.20;98553.97;5124021;27;20040;-93
2021/05/24 11:23:14;;;;;;;9.55;3.70;;;;;;;27.96;30.59;98540.34;5119419;28;20062;-93
2021/05/24 11:28:51;;;;;;;11.43;4.40;;;;;;;28.08;31.60;98533.59;5161973;27;1031075;-90
2021/05/24 11:31:19;;;;;;;10.95;3.97;;;;;;;28.10;30.75;98525.25;5173956;27;20074;-93